PWSweather.com
Personal Weather Stations
Station Observations
IPUGLIAA10
Acquaviva Delle FontiIT 70021

Acquaviva Delle FontiIT 70021

Lat: 40.8906215, Lon: 16.8456484

Elevation: 1020

Station Type: Davis Vantage Vue

http://www.meteoacquaviva.it

Latest ConditionsUpdated 2:50:14 PM GMT+01:01 Sunday, Jun 16, 2019
Currently Today's Max Today's Min Today's Average
Temperature 87.0°F30.6°C 89.1°F31.7°C 75.5°F24.2°C 82.4°F28.0°C
Dew Point 63.7°F17.6°C 64.7°F18.2°C 55.2°F12.9°C 58.8°F14.9°C
Winds 8.1 mph NNE13.0 kmh NNE 9.2 mph -14.8 kmh - - 3.9 mph 6.3 kmh
Wind Gusts 12.7 mph20.4 kmh 18.4 mph29.6 kmh - -
Humidity 46% 51% 37% 45%
Pressure 29.89 in1012.2 mb 29.94 in1013.9 mb 29.89 in1012.2 mb -
Hour Temp Dew Point Humidity Winds Wind Gusts Pressure Precip Precip Rate Daily Precip Total
02:50 PM 87.0°F30.6°C 63.7°F17.6°C 46% 8.1 mph NNE13.0 kmh NNE 12.7 mph20.4 kmh 29.89 in1012.2 mb - 0.00 in0.0 mm 0.00 in0.0 mm
02:40 PM 86.8°F30.4°C 64.2°F17.9°C 47% 3.5 mph NE5.6 kmh NE 8.1 mph13.0 kmh 29.89 in1012.2 mb - 0.00 in0.0 mm 0.00 in0.0 mm
02:30 PM 87.4°F30.8°C 64.7°F18.2°C 47% 5.8 mph NNE9.3 kmh NNE 10.4 mph16.7 kmh 29.90 in1012.5 mb - 0.00 in0.0 mm 0.00 in0.0 mm
02:20 PM 87.4°F30.8°C 64.7°F18.2°C 47% 3.5 mph NE5.6 kmh NE 5.8 mph9.3 kmh 29.90 in1012.5 mb - 0.00 in0.0 mm 0.00 in0.0 mm
02:10 PM 87.8°F31.0°C 64.4°F18.0°C 46% 5.8 mph NE9.3 kmh NE 9.2 mph14.8 kmh 29.90 in1012.5 mb - 0.00 in0.0 mm 0.00 in0.0 mm
02:00 PM 87.9°F31.1°C 64.5°F18.1°C 46% 4.6 mph NNE7.4 kmh NNE 11.5 mph18.5 kmh 29.90 in1012.5 mb - 0.00 in0.0 mm 0.00 in0.0 mm
01:50 PM 87.9°F31.1°C 63.9°F17.7°C 45% 4.6 mph NNE7.4 kmh NNE 8.1 mph13.0 kmh 29.91 in1012.9 mb - 0.00 in0.0 mm 0.00 in0.0 mm
01:40 PM 88.1°F31.2°C 63.5°F17.5°C 44% 4.6 mph NNE7.4 kmh NNE 11.5 mph18.5 kmh 29.91 in1012.9 mb - 0.00 in0.0 mm 0.00 in0.0 mm
01:30 PM 88.7°F31.5°C 64.0°F17.8°C 44% 6.9 mph NNE11.1 kmh NNE 11.5 mph18.5 kmh 29.91 in1012.9 mb - 0.00 in0.0 mm 0.00 in0.0 mm
01:20 PM 88.3°F31.3°C 63.6°F17.6°C 44% 4.6 mph NE7.4 kmh NE 9.2 mph14.8 kmh 29.91 in1012.9 mb - 0.00 in0.0 mm 0.00 in0.0 mm
01:10 PM 88.2°F31.2°C 62.2°F16.8°C 42% 6.9 mph NE11.1 kmh NE 8.1 mph13.0 kmh 29.91 in1012.9 mb - 0.00 in0.0 mm 0.00 in0.0 mm
01:00 PM 88.3°F31.3°C 63.0°F17.2°C 43% 6.9 mph NE11.1 kmh NE 13.8 mph22.2 kmh 29.92 in1013.2 mb - 0.00 in0.0 mm 0.00 in0.0 mm
12:50 PM 88.5°F31.4°C 63.8°F17.7°C 44% 6.9 mph NE11.1 kmh NE 8.1 mph13.0 kmh 29.92 in1013.2 mb - 0.00 in0.0 mm 0.00 in0.0 mm
12:40 PM 88.6°F31.4°C 62.6°F17.0°C 42% 9.2 mph NE14.8 kmh NE 11.5 mph18.5 kmh 29.93 in1013.5 mb - 0.00 in0.0 mm 0.00 in0.0 mm
12:30 PM 89.1°F31.7°C 63.0°F17.2°C 42% 5.8 mph NE9.3 kmh NE 10.4 mph16.7 kmh 29.93 in1013.5 mb - 0.00 in0.0 mm 0.00 in0.0 mm
12:20 PM 89.1°F31.7°C 60.1°F15.6°C 38% 5.8 mph NNE9.3 kmh NNE 11.5 mph18.5 kmh 29.93 in1013.5 mb - 0.00 in0.0 mm 0.00 in0.0 mm
12:10 PM 88.5°F31.4°C 61.1°F16.2°C 40% 4.6 mph NNE7.4 kmh NNE 11.5 mph18.5 kmh 29.93 in1013.5 mb - 0.00 in0.0 mm 0.00 in0.0 mm
12:00 PM 88.8°F31.6°C 59.9°F15.5°C 38% 8.1 mph NE13.0 kmh NE 11.5 mph18.5 kmh 29.93 in1013.5 mb - 0.00 in0.0 mm 0.00 in0.0 mm
11:50 AM 89.0°F31.7°C 59.4°F15.2°C 37% 4.6 mph NE7.4 kmh NE 4.6 mph7.4 kmh 29.94 in1013.9 mb - 0.00 in0.0 mm 0.00 in0.0 mm
11:40 AM 88.7°F31.5°C 61.3°F16.3°C 40% 4.6 mph NNE7.4 kmh NNE 8.1 mph13.0 kmh 29.94 in1013.9 mb - 0.00 in0.0 mm 0.00 in0.0 mm
11:30 AM 88.0°F31.1°C 61.3°F16.3°C 41% 5.8 mph NNE9.3 kmh NNE 8.1 mph13.0 kmh 29.94 in1013.9 mb - 0.00 in0.0 mm 0.00 in0.0 mm
11:20 AM 87.4°F30.8°C 61.5°F16.4°C 42% 5.8 mph N9.3 kmh N 10.4 mph16.7 kmh 29.94 in1013.9 mb - 0.00 in0.0 mm 0.00 in0.0 mm
11:10 AM 87.5°F30.8°C 61.6°F16.4°C 42% 5.8 mph NE9.3 kmh NE 11.5 mph18.5 kmh 29.94 in1013.9 mb - 0.00 in0.0 mm 0.00 in0.0 mm
11:00 AM 87.2°F30.7°C 62.0°F16.7°C 43% 8.1 mph NE13.0 kmh NE 9.2 mph14.8 kmh 29.94 in1013.9 mb - 0.00 in0.0 mm 0.00 in0.0 mm
10:50 AM 86.7°F30.4°C 62.2°F16.8°C 44% 4.6 mph NNE7.4 kmh NNE 6.9 mph11.1 kmh 29.94 in1013.9 mb - 0.00 in0.0 mm 0.00 in0.0 mm
10:40 AM 86.3°F30.2°C 61.9°F16.6°C 44% 6.9 mph NE11.1 kmh NE 12.7 mph20.4 kmh 29.94 in1013.9 mb - 0.00 in0.0 mm 0.00 in0.0 mm
10:30 AM 86.5°F30.3°C 62.0°F16.7°C 44% 5.8 mph NNE9.3 kmh NNE 9.2 mph14.8 kmh 29.94 in1013.9 mb - 0.00 in0.0 mm 0.00 in0.0 mm
10:20 AM 86.3°F30.2°C 61.8°F16.6°C 44% 6.9 mph NE11.1 kmh NE 18.4 mph29.6 kmh 29.94 in1013.9 mb - 0.00 in0.0 mm 0.00 in0.0 mm
10:10 AM 86.0°F30.0°C 61.5°F16.4°C 44% 8.1 mph NE13.0 kmh NE 11.5 mph18.5 kmh 29.94 in1013.9 mb - 0.00 in0.0 mm 0.00 in0.0 mm
10:00 AM 85.7°F29.8°C 61.9°F16.6°C 45% 8.1 mph NE13.0 kmh NE 12.7 mph20.4 kmh 29.94 in1013.9 mb - 0.00 in0.0 mm 0.00 in0.0 mm
09:50 AM 85.6°F29.8°C 61.8°F16.6°C 45% 9.2 mph NE14.8 kmh NE 13.8 mph22.2 kmh 29.93 in1013.5 mb - 0.00 in0.0 mm 0.00 in0.0 mm
09:40 AM 85.7°F29.8°C 63.1°F17.3°C 47% 6.9 mph NNE11.1 kmh NNE 11.5 mph18.5 kmh 29.93 in1013.5 mb - 0.00 in0.0 mm 0.00 in0.0 mm
09:30 AM 85.1°F29.5°C 62.0°F16.7°C 46% 6.9 mph NNE11.1 kmh NNE 11.5 mph18.5 kmh 29.93 in1013.5 mb - 0.00 in0.0 mm 0.00 in0.0 mm
09:20 AM 85.4°F29.7°C 61.0°F16.1°C 44% 8.1 mph NNE13.0 kmh NNE 13.8 mph22.2 kmh 29.93 in1013.5 mb - 0.00 in0.0 mm 0.00 in0.0 mm
09:10 AM 85.6°F29.8°C 60.5°F15.8°C 43% 5.8 mph NE9.3 kmh NE 11.5 mph18.5 kmh 29.93 in1013.5 mb - 0.00 in0.0 mm 0.00 in0.0 mm
09:00 AM 85.1°F29.5°C 60.1°F15.6°C 43% 6.9 mph NNE11.1 kmh NNE 8.1 mph13.0 kmh 29.93 in1013.5 mb - 0.00 in0.0 mm 0.00 in0.0 mm
08:50 AM 84.6°F29.2°C 59.0°F15.0°C 42% 5.8 mph NE9.3 kmh NE 6.9 mph11.1 kmh 29.93 in1013.5 mb - 0.00 in0.0 mm 0.00 in0.0 mm
08:40 AM 84.7°F29.3°C 58.4°F14.7°C 41% 5.8 mph N9.3 kmh N 11.5 mph18.5 kmh 29.92 in1013.2 mb - 0.00 in0.0 mm 0.00 in0.0 mm
08:30 AM 84.7°F29.3°C 57.7°F14.3°C 40% 5.8 mph NNE9.3 kmh NNE 9.2 mph14.8 kmh 29.92 in1013.2 mb - 0.00 in0.0 mm 0.00 in0.0 mm
08:20 AM 84.5°F29.2°C 57.5°F14.2°C 40% 4.6 mph NNE7.4 kmh NNE 5.8 mph9.3 kmh 29.92 in1013.2 mb - 0.00 in0.0 mm 0.00 in0.0 mm
08:10 AM 83.9°F28.8°C 57.0°F13.9°C 40% 4.6 mph NNE7.4 kmh NNE 5.8 mph9.3 kmh 29.92 in1013.2 mb - 0.00 in0.0 mm 0.00 in0.0 mm
08:00 AM 83.9°F28.8°C 56.3°F13.5°C 39% 4.6 mph NNE7.4 kmh NNE 5.8 mph9.3 kmh 29.92 in1013.2 mb - 0.00 in0.0 mm 0.00 in0.0 mm
07:50 AM 83.9°F28.8°C 56.3°F13.5°C 39% 5.8 mph NNE9.3 kmh NNE 11.5 mph18.5 kmh 29.92 in1013.2 mb - 0.00 in0.0 mm 0.00 in0.0 mm
07:40 AM 83.4°F28.6°C 56.5°F13.6°C 40% 4.6 mph WNW7.4 kmh WNW 6.9 mph11.1 kmh 29.91 in1012.9 mb - 0.00 in0.0 mm 0.00 in0.0 mm
07:30 AM 82.9°F28.3°C 56.7°F13.7°C 41% 4.6 mph NNE7.4 kmh NNE 11.5 mph18.5 kmh 29.91 in1012.9 mb - 0.00 in0.0 mm 0.00 in0.0 mm
07:20 AM 82.6°F28.1°C 57.2°F14.0°C 42% 3.5 mph NNE5.6 kmh NNE 5.8 mph9.3 kmh 29.91 in1012.9 mb - 0.00 in0.0 mm 0.00 in0.0 mm
07:10 AM 82.5°F28.1°C 57.1°F13.9°C 42% 5.8 mph NE9.3 kmh NE 9.2 mph14.8 kmh 29.91 in1012.9 mb - 0.00 in0.0 mm 0.00 in0.0 mm
07:00 AM 81.9°F27.7°C 57.8°F14.3°C 44% 4.6 mph N7.4 kmh N 5.8 mph9.3 kmh 29.91 in1012.9 mb - 0.00 in0.0 mm 0.00 in0.0 mm
06:50 AM 81.5°F27.5°C 58.2°F14.6°C 45% 3.5 mph N5.6 kmh N 3.5 mph5.6 kmh 29.91 in1012.9 mb - 0.00 in0.0 mm 0.00 in0.0 mm
06:40 AM 80.7°F27.1°C 58.6°F14.8°C 47% 4.6 mph N7.4 kmh N 4.6 mph7.4 kmh 29.91 in1012.9 mb - 0.00 in0.0 mm 0.00 in0.0 mm
06:30 AM 79.7°F26.5°C 58.8°F14.9°C 49% 1.2 mph NNE1.9 kmh NNE 3.5 mph5.6 kmh 29.90 in1012.5 mb - 0.00 in0.0 mm 0.00 in0.0 mm
06:20 AM 79.0°F26.1°C 58.2°F14.6°C 49% 2.3 mph NW3.7 kmh NW 4.6 mph7.4 kmh 29.90 in1012.5 mb - 0.00 in0.0 mm 0.00 in0.0 mm
06:10 AM 78.6°F25.9°C 57.3°F14.1°C 48% 3.5 mph NW5.6 kmh NW 4.6 mph7.4 kmh 29.90 in1012.5 mb - 0.00 in0.0 mm 0.00 in0.0 mm
06:00 AM 78.1°F25.6°C 56.8°F13.8°C 48% 3.5 mph NW5.6 kmh NW 6.9 mph11.1 kmh 29.90 in1012.5 mb - 0.00 in0.0 mm 0.00 in0.0 mm
05:50 AM 77.6°F25.3°C 56.9°F13.8°C 49% 1.2 mph N1.9 kmh N 4.6 mph7.4 kmh 29.90 in1012.5 mb - 0.00 in0.0 mm 0.00 in0.0 mm
05:40 AM 77.0°F25.0°C 56.9°F13.8°C 50% 1.2 mph N1.9 kmh N 2.3 mph3.7 kmh 29.90 in1012.5 mb - 0.00 in0.0 mm 0.00 in0.0 mm
05:30 AM 76.5°F24.7°C 56.5°F13.6°C 50% Calm Calm -- 29.89 in1012.2 mb - 0.00 in0.0 mm 0.00 in0.0 mm
05:20 AM 76.3°F24.6°C 56.3°F13.5°C 50% Calm Calm -- 29.89 in1012.2 mb - 0.00 in0.0 mm 0.00 in0.0 mm
05:10 AM 76.1°F24.5°C 56.1°F13.4°C 50% Calm Calm -- 29.89 in1012.2 mb - 0.00 in0.0 mm 0.00 in0.0 mm
05:00 AM 76.2°F24.6°C 56.2°F13.4°C 50% Calm Calm 1.2 mph1.9 kmh 29.89 in1012.2 mb - 0.00 in0.0 mm 0.00 in0.0 mm
04:50 AM 76.6°F24.8°C 56.0°F13.3°C 49% 2.3 mph WSW3.7 kmh WSW 3.5 mph5.6 kmh 29.89 in1012.2 mb - 0.00 in0.0 mm 0.00 in0.0 mm
04:40 AM 76.8°F24.9°C 55.6°F13.1°C 48% Calm Calm -- 29.89 in1012.2 mb - 0.00 in0.0 mm 0.00 in0.0 mm
04:30 AM 77.0°F25.0°C 55.8°F13.2°C 48% 1.2 mph WNW1.9 kmh WNW 1.2 mph1.9 kmh 29.89 in1012.2 mb - 0.00 in0.0 mm 0.00 in0.0 mm
04:20 AM 77.3°F25.2°C 55.5°F13.1°C 47% 1.2 mph WNW1.9 kmh WNW 2.3 mph3.7 kmh 29.89 in1012.2 mb - 0.00 in0.0 mm 0.00 in0.0 mm
04:10 AM 77.6°F25.3°C 55.8°F13.2°C 47% 1.2 mph NW1.9 kmh NW 3.5 mph5.6 kmh 29.89 in1012.2 mb - 0.00 in0.0 mm 0.00 in0.0 mm
04:00 AM 77.6°F25.3°C 55.2°F12.9°C 46% 2.3 mph NW3.7 kmh NW 4.6 mph7.4 kmh 29.89 in1012.2 mb - 0.00 in0.0 mm 0.00 in0.0 mm
03:50 AM 77.8°F25.4°C 55.4°F13.0°C 46% 2.3 mph NW3.7 kmh NW 4.6 mph7.4 kmh 29.89 in1012.2 mb - 0.00 in0.0 mm 0.00 in0.0 mm
03:40 AM 78.2°F25.7°C 55.2°F12.9°C 45% 2.3 mph NNW3.7 kmh NNW 3.5 mph5.6 kmh 29.89 in1012.2 mb - 0.00 in0.0 mm 0.00 in0.0 mm
03:30 AM 78.3°F25.7°C 55.2°F12.9°C 45% 1.2 mph NW1.9 kmh NW 4.6 mph7.4 kmh 29.89 in1012.2 mb - 0.00 in0.0 mm 0.00 in0.0 mm
03:20 AM 78.3°F25.7°C 55.2°F12.9°C 45% 1.2 mph N1.9 kmh N 1.2 mph1.9 kmh 29.89 in1012.2 mb - 0.00 in0.0 mm 0.00 in0.0 mm
03:10 AM 78.1°F25.6°C 55.6°F13.1°C 46% 2.3 mph NNW3.7 kmh NNW 3.5 mph5.6 kmh 29.89 in1012.2 mb - 0.00 in0.0 mm 0.00 in0.0 mm
03:00 AM 78.0°F25.6°C 55.5°F13.1°C 46% 3.5 mph WSW5.6 kmh WSW 3.5 mph5.6 kmh 29.89 in1012.2 mb - 0.00 in0.0 mm 0.00 in0.0 mm
02:50 AM 77.8°F25.4°C 55.4°F13.0°C 46% 1.2 mph WSW1.9 kmh WSW 3.5 mph5.6 kmh 29.89 in1012.2 mb - 0.00 in0.0 mm 0.00 in0.0 mm
02:40 AM 77.7°F25.4°C 55.9°F13.3°C 47% 2.3 mph WSW3.7 kmh WSW 4.6 mph7.4 kmh 29.89 in1012.2 mb - 0.00 in0.0 mm 0.00 in0.0 mm
02:30 AM 77.7°F25.4°C 55.9°F13.3°C 47% Calm Calm 3.5 mph5.6 kmh 29.89 in1012.2 mb - 0.00 in0.0 mm 0.00 in0.0 mm
02:20 AM 77.7°F25.4°C 55.8°F13.2°C 47% 1.2 mph NW1.9 kmh NW 3.5 mph5.6 kmh 29.90 in1012.5 mb - 0.00 in0.0 mm 0.00 in0.0 mm
02:10 AM 77.6°F25.3°C 56.4°F13.6°C 48% 2.3 mph N3.7 kmh N 3.5 mph5.6 kmh 29.90 in1012.5 mb - 0.00 in0.0 mm 0.00 in0.0 mm
02:00 AM 77.6°F25.3°C 56.4°F13.6°C 48% 2.3 mph NW3.7 kmh NW 3.5 mph5.6 kmh 29.90 in1012.5 mb - 0.00 in0.0 mm 0.00 in0.0 mm
01:50 AM 76.8°F24.9°C 56.8°F13.8°C 50% 2.3 mph N3.7 kmh N 3.5 mph5.6 kmh 29.90 in1012.5 mb - 0.00 in0.0 mm 0.00 in0.0 mm
01:40 AM 75.9°F24.4°C 56.5°F13.6°C 51% Calm Calm -- 29.90 in1012.5 mb - 0.00 in0.0 mm 0.00 in0.0 mm
01:30 AM 76.2°F24.6°C 56.7°F13.7°C 51% Calm Calm 1.2 mph1.9 kmh 29.89 in1012.2 mb - 0.00 in0.0 mm 0.00 in0.0 mm
01:20 AM 75.5°F24.2°C 56.1°F13.4°C 51% Calm Calm 1.2 mph1.9 kmh 29.89 in1012.2 mb - 0.00 in0.0 mm 0.00 in0.0 mm
01:10 AM 76.8°F24.9°C 56.2°F13.4°C 49% Calm Calm 1.2 mph1.9 kmh 29.90 in1012.5 mb - 0.00 in0.0 mm 0.00 in0.0 mm
01:00 AM 78.2°F25.7°C 56.3°F13.5°C 47% 1.2 mph WSW1.9 kmh WSW 1.2 mph1.9 kmh 29.90 in1012.5 mb - 0.00 in0.0 mm 0.00 in0.0 mm
12:50 AM 78.6°F25.9°C 55.5°F13.1°C 45% 2.3 mph SW3.7 kmh SW 3.5 mph5.6 kmh 29.90 in1012.5 mb - 0.00 in0.0 mm 0.00 in0.0 mm
12:40 AM 78.6°F25.9°C 55.5°F13.1°C 45% 1.2 mph WSW1.9 kmh WSW 2.3 mph3.7 kmh 29.90 in1012.5 mb - 0.00 in0.0 mm 0.00 in0.0 mm
12:30 AM 78.7°F25.9°C 55.6°F13.1°C 45% 2.3 mph SW3.7 kmh SW 3.5 mph5.6 kmh 29.90 in1012.5 mb - 0.00 in0.0 mm 0.00 in0.0 mm
12:20 AM 78.9°F26.1°C 55.7°F13.2°C 45% 2.3 mph WSW3.7 kmh WSW 3.5 mph5.6 kmh 29.91 in1012.9 mb - 0.00 in0.0 mm 0.00 in0.0 mm
12:10 AM 79.6°F26.4°C 55.8°F13.2°C 44% 1.2 mph NNE1.9 kmh NNE 2.3 mph3.7 kmh 29.90 in1012.5 mb - 0.00 in0.0 mm 0.00 in0.0 mm
12:00 AM 79.6°F26.4°C 55.8°F13.2°C 44% 1.2 mph NW1.9 kmh NW 2.3 mph3.7 kmh 29.90 in1012.5 mb - 0.00 in0.0 mm 0.00 in0.0 mm